Time;durP1;ratioP1;P1;durP2;ratioP2;P2;SDS_P1;SDS_P2;PMS_P1;PMS_P2;Temp;Humidity;BMP_temperature;BMP_pressure;BME280_temperature;BME280_humidity;BME280_pressure;Samples;Min_cycle;Max_cycle;Signal;HPM_P1;HPM_P2
2023/06/28 00:01:57;;;;;;;9.13;8.23;;;17.20;99.90;;;;;;5185621;28;20112;-71
2023/06/28 00:04:28;;;;;;;10.13;9.13;;;17.30;99.90;;;;;;5185657;28;20113;-71
2023/06/28 00:06:58;;;;;;;10.40;9.48;;;17.10;99.90;;;;;;5185517;28;20425;-71
2023/06/28 00:09:31;;;;;;;10.77;9.82;;;17.20;99.90;;;;;;5185378;28;20029;-71
2023/06/28 00:12:03;;;;;;;11.65;10.32;;;17.30;99.90;;;;;;5185311;28;20437;-70
2023/06/28 00:14:33;;;;;;;12.95;12.05;;;17.30;99.90;;;;;;5185323;28;20040;-71
2023/06/28 00:17:04;;;;;;;15.15;13.95;;;17.00;99.90;;;;;;5185348;28;20037;-71
2023/06/28 00:19:35;;;;;;;16.98;15.38;;;17.20;99.90;;;;;;5185374;28;20025;-71
2023/06/28 00:22:06;;;;;;;20.13;18.50;;;17.10;99.90;;;;;;5185425;28;20030;-72
2023/06/28 00:24:37;;;;;;;17.45;15.80;;;17.00;99.90;;;;;;5185333;28;20470;-71
2023/06/28 00:27:07;;;;;;;12.88;11.90;;;16.90;99.90;;;;;;5185479;28;20113;-72
2023/06/28 00:29:38;;;;;;;13.60;12.35;;;16.90;99.90;;;;;;5185669;28;20386;-73
2023/06/28 00:32:09;;;;;;;13.00;12.10;;;16.90;99.90;;;;;;5185698;28;20065;-73
2023/06/28 00:34:40;;;;;;;13.40;12.30;;;16.80;99.90;;;;;;5185336;28;20022;-72
2023/06/28 00:37:11;;;;;;;11.73;10.75;;;16.90;99.90;;;;;;5185309;28;20045;-72
2023/06/28 00:39:42;;;;;;;11.35;9.80;;;17.10;99.90;;;;;;5185126;28;20022;-72
2023/06/28 00:42:13;;;;;;;11.25;9.65;;;17.10;99.90;;;;;;5185088;28;20046;-71
2023/06/28 00:44:43;;;;;;;11.75;10.32;;;16.80;99.90;;;;;;5185175;28;20049;-72
2023/06/28 00:47:15;;;;;;;11.77;9.43;;;16.90;99.90;;;;;;5185168;28;20049;-72
2023/06/28 00:49:47;;;;;;;12.70;9.40;;;17.00;99.90;;;;;;5185193;28;20057;-72
2023/06/28 00:52:17;;;;;;;9.70;8.68;;;17.10;99.90;;;;;;5185121;28;20048;-72
2023/06/28 00:54:49;;;;;;;11.07;9.25;;;17.20;99.90;;;;;;5184909;28;20025;-72
2023/06/28 00:57:20;;;;;;;10.80;9.77;;;17.20;99.90;;;;;;5188998;28;20037;-72
2023/06/28 00:59:53;;;;;;;10.70;9.20;;;17.20;99.90;;;;;;5189194;28;20563;-72
2023/06/28 01:02:25;;;;;;;11.10;8.75;;;17.10;99.90;;;;;;5189123;28;20036;-72
2023/06/28 01:04:58;;;;;;;10.45;9.45;;;17.30;99.90;;;;;;5188935;28;20112;-72
2023/06/28 01:07:35;;;;;;;9.70;8.45;;;17.00;99.90;;;;;;5188921;28;20036;-72
2023/06/28 01:10:07;;;;;;;13.23;9.10;;;17.00;99.90;;;;;;5188872;28;20101;-72
2023/06/28 01:12:39;;;;;;;10.30;8.73;;;17.20;99.90;;;;;;5188882;28;20108;-72
2023/06/28 01:15:10;;;;;;;9.45;8.50;;;17.10;99.90;;;;;;5188727;28;20038;-73
2023/06/28 01:17:41;;;;;;;10.63;9.50;;;17.20;99.90;;;;;;5188787;28;20026;-73
2023/06/28 01:20:12;;;;;;;9.88;8.88;;;17.20;99.90;;;;;;5188631;28;20029;-72
2023/06/28 01:22:52;;;;;;;11.35;9.38;;;17.10;99.90;;;;;;5188722;28;20022;-72
2023/06/28 01:25:23;;;;;;;18.52;12.23;;;17.00;99.90;;;;;;5188621;28;20355;-72
2023/06/28 01:27:54;;;;;;;12.68;10.65;;;17.10;99.90;;;;;;5188489;28;20088;-72
2023/06/28 01:30:25;;;;;;;12.50;10.55;;;17.00;99.90;;;;;;5188646;28;20022;-72
2023/06/28 01:32:56;;;;;;;11.82;10.73;;;17.00;99.90;;;;;;5188563;28;20026;-72
2023/06/28 01:35:29;;;;;;;15.18;12.13;;;17.00;99.90;;;;;;5188352;28;20033;-72
2023/06/28 01:38:01;;;;;;;14.05;11.57;;;17.10;99.90;;;;;;5188446;28;20389;-72
2023/06/28 01:40:36;;;;;;;12.38;11.07;;;17.00;99.90;;;;;;5188251;28;20022;-72
2023/06/28 01:43:07;;;;;;;12.95;10.30;;;17.10;99.90;;;;;;5188401;28;20034;-72
2023/06/28 01:45:38;;;;;;;14.68;11.63;;;17.10;99.90;;;;;;5188245;28;20026;-73
2023/06/28 01:48:09;;;;;;;12.15;10.75;;;17.10;99.90;;;;;;5188405;28;20029;-72
2023/06/28 01:50:40;;;;;;;12.07;10.98;;;17.00;99.90;;;;;;5188506;28;20422;-72
2023/06/28 01:53:11;;;;;;;13.23;12.02;;;16.80;99.90;;;;;;5188343;28;20449;-72
2023/06/28 01:55:42;;;;;;;14.57;13.15;;;16.70;99.90;;;;;;5188057;28;20034;-72
2023/06/28 01:58:13;;;;;;;14.15;12.80;;;16.70;99.90;;;;;;5188090;28;20108;-72
2023/06/28 02:00:44;;;;;;;14.15;11.50;;;16.90;99.90;;;;;;5188113;28;20014;-72
2023/06/28 02:03:15;;;;;;;12.63;11.40;;;16.90;99.90;;;;;;5188179;28;20421;-72
2023/06/28 02:05:46;;;;;;;14.90;11.23;;;16.80;99.90;;;;;;5188049;28;20018;-72
2023/06/28 02:08:17;;;;;;;15.52;13.77;;;16.90;99.90;;;;;;5186661;28;20057;-72
2023/06/28 02:10:48;;;;;;;13.88;12.57;;;16.80;99.90;;;;;;5187874;28;20021;-72
2023/06/28 02:13:18;;;;;;;13.05;11.70;;;16.80;99.90;;;;;;5188206;28;20038;-72
2023/06/28 02:15:49;;;;;;;13.93;12.63;;;16.80;99.90;;;;;;5187952;28;20504;-72
2023/06/28 02:18:24;;;;;;;15.38;13.70;;;16.50;99.90;;;;;;5170565;28;20120;-71
2023/06/28 02:20:55;;;;;;;15.32;13.85;;;16.30;99.90;;;;;;5187996;28;20037;-72
2023/06/28 02:23:26;;;;;;;14.75;13.18;;;16.60;99.90;;;;;;5187946;28;20021;-71
2023/06/28 02:25:57;;;;;;;13.27;11.98;;;16.70;99.90;;;;;;5187628;28;20370;-72
2023/06/28 02:28:28;;;;;;;15.68;14.20;;;16.60;99.90;;;;;;5187432;28;20057;-72
2023/06/28 02:30:58;;;;;;;15.70;14.07;;;16.60;99.90;;;;;;5187420;28;20378;-72
2023/06/28 02:33:29;;;;;;;15.10;12.73;;;16.70;99.90;;;;;;5187362;28;20030;-71
2023/06/28 02:36:00;;;;;;;13.88;12.77;;;16.60;99.90;;;;;;5187372;28;20049;-72
2023/06/28 02:38:31;;;;;;;13.48;12.27;;;16.80;99.90;;;;;;5187309;28;20026;-72
2023/06/28 02:41:02;;;;;;;15.07;12.18;;;16.80;99.90;;;;;;5186832;28;20065;-72
2023/06/28 02:43:33;;;;;;;12.35;11.15;;;16.70;99.90;;;;;;5187137;28;20510;-72
2023/06/28 02:46:04;;;;;;;13.00;11.73;;;16.80;99.90;;;;;;5186969;28;20108;-72
2023/06/28 02:48:35;;;;;;;12.07;10.98;;;16.70;99.90;;;;;;5186895;28;20084;-72
2023/06/28 02:51:06;;;;;;;11.10;9.95;;;16.90;99.90;;;;;;5187034;28;20026;-72
2023/06/28 02:53:36;;;;;;;12.13;10.82;;;17.00;99.90;;;;;;5186974;28;20485;-72
2023/06/28 02:56:07;;;;;;;17.95;10.77;;;17.00;99.90;;;;;;5186794;28;20030;-72
2023/06/28 02:58:38;;;;;;;10.65;9.60;;;16.90;99.90;;;;;;5187019;28;20033;-72
2023/06/28 03:01:09;;;;;;;15.45;10.75;;;17.00;99.90;;;;;;5186837;28;20579;-71
2023/06/28 03:03:40;;;;;;;12.48;9.40;;;17.00;99.90;;;;;;5186863;28;20026;-72
2023/06/28 03:06:11;;;;;;;14.10;11.13;;;17.00;99.90;;;;;;5186640;28;20052;-72
2023/06/28 03:08:42;;;;;;;13.38;11.50;;;17.00;99.90;;;;;;5186748;28;20109;-72
2023/06/28 03:11:13;;;;;;;14.88;13.32;;;17.00;99.90;;;;;;5186644;28;20080;-71
2023/06/28 03:13:44;;;;;;;14.52;12.75;;;17.00;99.90;;;;;;5186712;28;20022;-72
2023/06/28 03:16:15;;;;;;;13.77;12.48;;;17.00;99.90;;;;;;5186520;28;20049;-72
2023/06/28 03:18:46;;;;;;;20.58;12.77;;;17.20;99.90;;;;;;5186204;28;20030;-72
2023/06/28 03:21:17;;;;;;;45.95;19.45;;;17.10;99.90;;;;;;5186439;28;20120;-72
2023/06/28 03:23:48;;;;;;;21.83;13.75;;;16.70;99.90;;;;;;5186512;28;20076;-71
2023/06/28 03:26:19;;;;;;;12.98;11.45;;;16.60;99.90;;;;;;5186340;28;20421;-72
2023/06/28 03:28:50;;;;;;;12.68;11.30;;;16.80;99.90;;;;;;5186315;28;20029;-72
2023/06/28 03:31:21;;;;;;;13.13;11.65;;;16.90;99.90;;;;;;5186285;28;20029;-71
2023/06/28 03:33:51;;;;;;;13.40;12.10;;;17.00;99.90;;;;;;5186248;28;20034;-72
2023/06/28 03:36:24;;;;;;;13.48;12.15;;;16.90;99.90;;;;;;5186152;28;20041;-72
2023/06/28 03:38:55;;;;;;;13.18;12.00;;;17.00;99.90;;;;;;5186063;28;20474;-72
2023/06/28 03:41:27;;;;;;;14.57;13.18;;;17.10;99.90;;;;;;5185872;28;20033;-72
2023/06/28 03:43:58;;;;;;;15.52;14.02;;;17.10;99.90;;;;;;5186001;28;20036;-72
2023/06/28 03:46:29;;;;;;;14.98;13.55;;;17.20;99.90;;;;;;5185973;28;20014;-72
2023/06/28 03:49:00;;;;;;;14.88;13.68;;;17.20;99.90;;;;;;5185871;28;20528;-72
2023/06/28 03:51:30;;;;;;;15.02;13.73;;;17.40;99.90;;;;;;5185802;28;20042;-72
2023/06/28 03:54:02;;;;;;;15.20;13.70;;;17.50;99.90;;;;;;5185809;28;20423;-72
2023/06/28 03:56:32;;;;;;;15.63;14.13;;;17.70;99.90;;;;;;5186216;28;20036;-72
2023/06/28 03:59:03;;;;;;;14.23;12.95;;;17.60;99.90;;;;;;5185886;28;20391;-72
2023/06/28 04:01:34;;;;;;;15.23;13.80;;;17.80;99.90;;;;;;5185735;28;20945;-72
2023/06/28 04:04:05;;;;;;;15.40;13.80;;;17.80;99.90;;;;;;5185726;28;20030;-72
2023/06/28 04:06:36;;;;;;;14.02;12.65;;;17.80;99.90;;;;;;5185517;28;20080;-72
2023/06/28 04:09:08;;;;;;;11.85;10.75;;;17.90;99.90;;;;;;5185498;28;20169;-72
2023/06/28 04:11:39;;;;;;;10.48;9.48;;;18.00;99.90;;;;;;5185476;28;20109;-72
2023/06/28 04:14:10;;;;;;;17.70;16.15;;;18.00;99.90;;;;;;5185571;28;20033;-71
2023/06/28 04:16:41;;;;;;;11.75;10.63;;;18.20;99.90;;;;;;5186085;28;20038;-72
2023/06/28 04:19:11;;;;;;;13.45;9.80;;;18.00;99.90;;;;;;5185765;28;20026;-71
2023/06/28 04:21:42;;;;;;;11.00;10.00;;;18.10;99.90;;;;;;5185896;28;20364;-71
2023/06/28 04:24:13;;;;;;;13.15;11.90;;;18.00;99.90;;;;;;5185727;28;20487;-72
2023/06/28 04:26:44;;;;;;;15.00;13.80;;;18.00;99.90;;;;;;5186025;28;20462;-72
2023/06/28 04:29:15;;;;;;;14.52;13.43;;;18.50;99.90;;;;;;5185514;28;20037;-72
2023/06/28 04:31:46;;;;;;;15.27;13.98;;;18.50;99.90;;;;;;5185213;28;20076;-72
2023/06/28 04:34:17;;;;;;;14.63;13.43;;;18.50;99.90;;;;;;5185843;28;20030;-72
2023/06/28 04:36:49;;;;;;;13.98;12.80;;;18.50;99.90;;;;;;5185504;28;20041;-73
2023/06/28 04:39:20;;;;;;;12.73;11.57;;;18.50;99.90;;;;;;5185243;28;20038;-72
2023/06/28 04:41:51;;;;;;;13.95;12.63;;;18.80;99.90;;;;;;5185239;28;20046;-72
2023/06/28 04:44:22;;;;;;;13.98;12.75;;;19.00;99.90;;;;;;5185390;28;20478;-71
2023/06/28 04:46:53;;;;;;;13.90;12.90;;;19.00;99.90;;;;;;5185112;28;20080;-71
2023/06/28 04:49:23;;;;;;;12.70;11.80;;;19.10;99.90;;;;;;5185166;28;20026;-71
2023/06/28 04:51:56;;;;;;;12.00;11.10;;;19.30;99.90;;;;;;5185095;28;20049;-72
2023/06/28 04:54:27;;;;;;;11.07;10.07;;;19.40;99.90;;;;;;5185288;28;20343;-72
2023/06/28 04:56:58;;;;;;;10.80;9.80;;;19.60;99.90;;;;;;5185134;28;20048;-72
2023/06/28 04:59:29;;;;;;;10.20;9.40;;;19.60;99.90;;;;;;5185165;28;20022;-72
2023/06/28 05:02:03;;;;;;;9.93;9.02;;;19.70;99.90;;;;;;5185200;28;20477;-71
2023/06/28 05:04:35;;;;;;;10.50;9.50;;;19.90;99.90;;;;;;5185175;28;20473;-71
2023/06/28 05:07:07;;;;;;;10.93;10.05;;;20.00;99.90;;;;;;5185274;28;20033;-72
2023/06/28 05:09:39;;;;;;;9.73;8.93;;;20.00;99.90;;;;;;5185245;28;20026;-71
2023/06/28 05:12:09;;;;;;;9.23;8.55;;;20.10;99.90;;;;;;5184990;28;20126;-72
2023/06/28 05:14:40;;;;;;;10.30;9.45;;;20.20;99.90;;;;;;5185313;28;20061;-72
2023/06/28 05:17:11;;;;;;;9.40;8.70;;;20.20;99.90;;;;;;5185202;28;20033;-71
2023/06/28 05:19:42;;;;;;;9.80;9.00;;;20.60;99.90;;;;;;5185071;28;20018;-71
2023/06/28 05:22:13;;;;;;;10.77;9.77;;;20.70;99.90;;;;;;5184926;28;20030;-71
2023/06/28 05:24:44;;;;;;;10.40;9.40;;;20.70;99.90;;;;;;5184975;28;20026;-71
2023/06/28 05:27:15;;;;;;;11.52;10.63;;;20.80;99.90;;;;;;5184761;28;20038;-71
2023/06/28 05:29:45;;;;;;;10.00;9.23;;;20.90;99.90;;;;;;5185013;28;20076;-71
2023/06/28 05:32:18;;;;;;;10.60;9.80;;;21.00;99.90;;;;;;5184915;28;20029;-71
2023/06/28 05:34:48;;;;;;;10.90;10.10;;;21.20;99.90;;;;;;5184898;28;20128;-71
2023/06/28 05:37:19;;;;;;;11.98;11.05;;;21.40;99.90;;;;;;5184884;28;20125;-71
2023/06/28 05:39:50;;;;;;;11.23;10.18;;;21.60;99.90;;;;;;5184973;28;20026;-71
2023/06/28 05:42:21;;;;;;;11.63;10.80;;;21.80;99.90;;;;;;5186593;28;20494;-72
2023/06/28 05:44:52;;;;;;;13.00;12.10;;;21.70;99.90;;;;;;5188389;28;20042;-71
2023/06/28 05:47:23;;;;;;;13.20;12.20;;;21.80;99.90;;;;;;5188564;28;20018;-71
2023/06/28 05:49:54;;;;;;;12.75;11.70;;;22.00;99.90;;;;;;5188547;28;20509;-71
2023/06/28 05:52:25;;;;;;;12.73;11.82;;;22.10;99.90;;;;;;5188305;28;20072;-72
2023/06/28 05:54:55;;;;;;;12.75;11.75;;;22.40;99.90;;;;;;5188103;28;20032;-72
2023/06/28 05:57:26;;;;;;;12.57;11.65;;;22.60;99.90;;;;;;5188354;28;20086;-72
2023/06/28 05:59:57;;;;;;;10.18;9.38;;;22.70;99.90;;;;;;5188307;28;20063;-71
2023/06/28 06:02:28;;;;;;;9.63;8.82;;;22.80;99.90;;;;;;5188210;28;20033;-71
2023/06/28 06:05:01;;;;;;;11.75;9.82;;;22.90;99.90;;;;;;5187971;28;20033;-71
2023/06/28 06:07:34;;;;;;;11.13;10.05;;;23.10;99.90;;;;;;5187976;28;20038;-71
2023/06/28 06:10:05;;;;;;;10.45;9.63;;;23.30;99.90;;;;;;5187790;28;20057;-72
2023/06/28 06:12:36;;;;;;;8.73;7.93;;;23.30;99.90;;;;;;5187811;28;20030;-71
2023/06/28 06:15:08;;;;;;;8.82;8.13;;;23.40;99.90;;;;;;5187534;28;20389;-71
2023/06/28 06:17:39;;;;;;;8.90;8.10;;;23.50;99.90;;;;;;5187674;28;20037;-71
2023/06/28 06:20:10;;;;;;;11.35;10.40;;;23.60;99.90;;;;;;5187607;28;20022;-72
2023/06/28 06:22:44;;;;;;;15.77;14.50;;;23.80;99.90;;;;;;5187555;28;20030;-71
2023/06/28 06:25:15;;;;;;;12.77;11.77;;;23.90;99.90;;;;;;5187562;28;20046;-72
2023/06/28 06:27:45;;;;;;;11.05;10.00;;;24.10;99.90;;;;;;5187432;28;20033;-72
2023/06/28 06:30:16;;;;;;;11.57;10.68;;;24.00;99.90;;;;;;5187474;28;20021;-72
2023/06/28 06:32:47;;;;;;;11.07;9.95;;;24.20;99.90;;;;;;5187366;28;20026;-71
2023/06/28 06:35:18;;;;;;;10.57;9.50;;;24.20;99.90;;;;;;5187126;28;20026;-71
2023/06/28 06:37:49;;;;;;;10.32;9.32;;;24.50;99.90;;;;;;5187361;28;20064;-72
2023/06/28 06:40:20;;;;;;;9.82;8.93;;;24.60;99.90;;;;;;5187057;28;20378;-72
2023/06/28 06:42:51;;;;;;;9.55;8.65;;;24.60;99.90;;;;;;5187329;28;20058;-72
2023/06/28 06:45:22;;;;;;;9.75;8.82;;;24.80;99.90;;;;;;5187264;28;20032;-72
2023/06/28 06:47:53;;;;;;;9.88;8.98;;;24.80;99.90;;;;;;5186985;28;20022;-71
2023/06/28 06:50:24;;;;;;;10.38;9.38;;;24.80;99.90;;;;;;5187040;28;20109;-72
2023/06/28 06:52:54;;;;;;;8.68;7.80;;;24.80;99.90;;;;;;5186569;28;20088;-72
2023/06/28 06:55:25;;;;;;;9.63;8.73;;;25.00;99.90;;;;;;5187112;28;20489;-72
2023/06/28 06:57:56;;;;;;;9.63;8.73;;;24.90;99.90;;;;;;5187087;28;20034;-71
2023/06/28 07:00:27;;;;;;;9.55;8.65;;;25.10;99.90;;;;;;5187318;28;20076;-72
2023/06/28 07:02:58;;;;;;;8.85;8.05;;;25.30;99.90;;;;;;5186982;28;20113;-72
2023/06/28 07:05:29;;;;;;;9.80;8.95;;;25.30;99.90;;;;;;5186962;28;20104;-72
2023/06/28 07:07:59;;;;;;;10.32;9.40;;;25.40;99.90;;;;;;5169756;28;20365;-72
2023/06/28 07:10:30;;;;;;;10.55;9.57;;;25.40;99.90;;;;;;5186714;28;20030;-72
2023/06/28 07:13:01;;;;;;;10.70;9.80;;;25.60;99.90;;;;;;5186796;28;20066;-72
2023/06/28 07:15:32;;;;;;;10.88;9.82;;;25.80;99.90;;;;;;5187112;28;20053;-71
2023/06/28 07:18:04;;;;;;;9.27;8.63;;;25.90;99.90;;;;;;5186927;28;20022;-71
2023/06/28 07:20:35;;;;;;;9.25;8.48;;;25.70;99.90;;;;;;5186853;28;20026;-71
2023/06/28 07:23:05;;;;;;;8.98;8.18;;;25.90;99.90;;;;;;5186696;28;20030;-71
2023/06/28 07:25:38;;;;;;;9.68;8.75;;;26.00;99.90;;;;;;5186665;28;20172;-71
2023/06/28 07:28:08;;;;;;;7.30;6.60;;;25.90;99.90;;;;;;5186848;28;20087;-72
2023/06/28 07:30:55;;;;;;;8.00;7.30;;;25.90;99.90;;;;;;5186839;28;20037;-72
2023/06/28 07:33:26;;;;;;;7.82;7.13;;;26.10;99.90;;;;;;5186420;28;20030;-71
2023/06/28 07:35:57;;;;;;;9.20;8.40;;;26.30;99.90;;;;;;5186037;28;20422;-72
2023/06/28 07:38:27;;;;;;;9.80;8.90;;;26.50;99.90;;;;;;5186203;28;20034;-72
2023/06/28 07:40:58;;;;;;;10.40;9.65;;;26.60;99.90;;;;;;5185809;28;20451;-72
2023/06/28 07:43:29;;;;;;;14.93;13.93;;;26.50;99.90;;;;;;5186025;28;20042;-71
2023/06/28 07:46:01;;;;;;;9.02;8.23;;;26.40;99.90;;;;;;5186001;28;20049;-71
2023/06/28 07:48:32;;;;;;;6.65;6.10;;;26.60;99.90;;;;;;5185929;28;20054;-71
2023/06/28 07:51:05;;;;;;;6.07;5.57;;;26.80;99.90;;;;;;5185938;28;20061;-72
2023/06/28 07:53:36;;;;;;;6.72;6.03;;;26.80;99.90;;;;;;5186032;28;20029;-72
2023/06/28 07:56:06;;;;;;;7.40;6.80;;;26.90;99.90;;;;;;5185708;28;20038;-72
2023/06/28 07:58:37;;;;;;;8.68;7.93;;;27.10;99.90;;;;;;5185681;28;20418;-72
2023/06/28 08:01:08;;;;;;;9.90;9.07;;;27.10;99.90;;;;;;5185849;28;20120;-71
2023/06/28 08:03:39;;;;;;;8.43;7.63;;;27.20;99.90;;;;;;5185639;28;20033;-72
2023/06/28 08:06:10;;;;;;;6.90;6.30;;;27.10;99.90;;;;;;5185514;28;20034;-72
2023/06/28 08:08:41;;;;;;;7.35;6.78;;;27.20;99.90;;;;;;5185512;28;20022;-72
2023/06/28 08:11:11;;;;;;;7.82;7.22;;;27.30;99.90;;;;;;5185566;28;20425;-72
2023/06/28 08:13:43;;;;;;;7.88;6.47;;;27.40;99.90;;;;;;5185816;28;20022;-72
2023/06/28 08:16:13;;;;;;;6.55;6.05;;;27.40;99.90;;;;;;5185531;28;20501;-72
2023/06/28 08:18:44;;;;;;;7.07;6.55;;;27.50;99.90;;;;;;5185518;28;20030;-72
2023/06/28 08:21:15;;;;;;;6.65;6.15;;;27.60;99.90;;;;;;5185594;28;20079;-72
2023/06/28 08:23:46;;;;;;;6.88;6.10;;;27.80;99.90;;;;;;5185739;28;20025;-72
2023/06/28 08:26:17;;;;;;;6.60;5.82;;;27.90;99.90;;;;;;5185481;28;20087;-73
2023/06/28 08:28:48;;;;;;;7.40;6.80;;;27.70;99.90;;;;;;5185544;28;20109;-71
2023/06/28 08:31:18;;;;;;;9.40;8.77;;;27.80;99.90;;;;;;5185453;28;20217;-72
2023/06/28 08:33:49;;;;;;;9.88;9.23;;;27.60;99.90;;;;;;5185442;28;20076;-71
2023/06/28 08:36:20;;;;;;;16.13;15.05;;;27.80;99.90;;;;;;5185241;28;20087;-72
2023/06/28 08:38:51;;;;;;;18.15;17.05;;;27.80;99.90;;;;;;5185400;28;20029;-72
2023/06/28 08:41:23;;;;;;;16.55;15.48;;;27.90;99.90;;;;;;5185095;28;20042;-72
2023/06/28 08:43:55;;;;;;;19.73;18.45;;;28.20;99.90;;;;;;5185322;28;20041;-72
2023/06/28 08:46:29;;;;;;;20.58;19.25;;;28.20;99.90;;;;;;5185264;28;20369;-71
2023/06/28 08:49:00;;;;;;;23.67;22.27;;;27.80;99.90;;;;;;5185208;28;20026;-72
2023/06/28 08:51:32;;;;;;;20.92;19.42;;;28.00;99.90;;;;;;5185226;28;20022;-72
2023/06/28 08:54:03;;;;;;;17.33;16.30;;;28.10;99.90;;;;;;5185184;28;20053;-72
2023/06/28 08:56:35;;;;;;;11.23;10.27;;;28.20;99.90;;;;;;5185080;28;20046;-72
2023/06/28 08:59:08;;;;;;;8.25;7.05;;;28.10;99.90;;;;;;5185119;28;20026;-72
2023/06/28 09:01:39;;;;;;;6.78;6.20;;;28.30;99.90;;;;;;5185037;28;20026;-71
2023/06/28 09:04:10;;;;;;;8.30;6.60;;;28.60;99.90;;;;;;5185142;28;20037;-72
2023/06/28 09:06:41;;;;;;;5.95;5.55;;;28.60;99.90;;;;;;5185031;28;20516;-72
2023/06/28 09:09:13;;;;;;;5.50;5.03;;;28.80;99.90;;;;;;5184907;28;20030;-72
2023/06/28 09:11:44;;;;;;;6.53;5.55;;;28.80;99.90;;;;;;5184786;28;20033;-72
2023/06/28 09:14:15;;;;;;;5.95;5.13;;;28.80;99.90;;;;;;5184828;28;20030;-72
2023/06/28 09:16:46;;;;;;;5.45;4.93;;;28.80;99.90;;;;;;5186104;28;20500;-72
2023/06/28 09:19:16;;;;;;;6.00;5.50;;;28.90;99.90;;;;;;5188866;28;20024;-72
2023/06/28 09:21:47;;;;;;;6.55;5.43;;;28.80;99.90;;;;;;5188849;28;20038;-72
2023/06/28 09:24:25;;;;;;;5.95;5.50;;;28.70;99.90;;;;;;5188698;28;20030;-72
2023/06/28 09:27:01;;;;;;;5.43;5.03;;;29.00;99.90;;;;;;5188623;28;20088;-72
2023/06/28 09:29:32;;;;;;;5.40;4.55;;;29.10;99.90;;;;;;5188594;28;20026;-72
2023/06/28 09:32:05;;;;;;;6.05;4.43;;;29.20;99.90;;;;;;5188461;28;20026;-72
2023/06/28 09:34:37;;;;;;;5.25;4.82;;;29.20;99.90;;;;;;5188541;28;20053;-72
2023/06/28 09:37:10;;;;;;;5.22;4.70;;;29.00;99.90;;;;;;5188674;28;20032;-72
2023/06/28 09:39:41;;;;;;;8.55;5.63;;;28.90;99.90;;;;;;5188560;28;20032;-72
2023/06/28 09:42:11;;;;;;;6.70;5.25;;;28.60;99.90;;;;;;5188287;28;20046;-72
2023/06/28 09:44:55;;;;;;;7.00;5.28;;;28.80;99.90;;;;;;5188494;28;20467;-72
2023/06/28 09:47:32;;;;;;;6.95;5.55;;;28.70;99.90;;;;;;5188314;28;20044;-72
2023/06/28 09:50:03;;;;;;;6.25;5.43;;;28.70;99.90;;;;;;5188234;28;20088;-73
2023/06/28 09:52:37;;;;;;;6.93;6.32;;;29.00;99.90;;;;;;5188106;28;20028;-72
2023/06/28 09:55:08;;;;;;;6.30;5.80;;;28.80;99.90;;;;;;5188098;28;20029;-73
2023/06/28 09:57:42;;;;;;;6.72;6.05;;;28.60;99.90;;;;;;5188081;28;20359;-72
2023/06/28 10:00:14;;;;;;;7.07;6.15;;;28.80;99.90;;;;;;5188214;28;20018;-72
2023/06/28 10:02:46;;;;;;;6.90;6.30;;;29.10;99.90;;;;;;5187965;28;20038;-72
2023/06/28 10:05:17;;;;;;;6.47;5.95;;;29.30;99.90;;;;;;5187976;28;20030;-72
2023/06/28 10:07:50;;;;;;;7.30;6.70;;;29.40;99.90;;;;;;5187887;28;20115;-72
2023/06/28 10:10:21;;;;;;;7.78;7.07;;;29.60;99.90;;;;;;5187665;28;20030;-72
2023/06/28 10:12:54;;;;;;;7.35;6.57;;;29.90;99.90;;;;;;5187712;28;20038;-71
2023/06/28 10:15:26;;;;;;;7.95;5.82;;;30.00;99.90;;;;;;5187676;28;20032;-71
2023/06/28 10:17:57;;;;;;;5.72;5.13;;;29.90;99.90;;;;;;5187684;28;20653;-71
2023/06/28 10:20:29;;;;;;;9.50;4.93;;;30.00;99.90;;;;;;5187674;28;20466;-72
2023/06/28 10:23:00;;;;;;;5.05;4.63;;;30.00;99.90;;;;;;5187570;28;20084;-72
2023/06/28 10:25:32;;;;;;;5.43;4.82;;;30.10;99.90;;;;;;5187520;28;20440;-72
2023/06/28 10:28:03;;;;;;;4.88;4.38;;;30.10;99.90;;;;;;5186353;28;20103;-72
2023/06/28 10:30:35;;;;;;;6.13;5.50;;;30.20;99.90;;;;;;5187477;28;20030;-72
2023/06/28 10:33:06;;;;;;;5.82;5.38;;;30.20;99.90;;;;;;5187403;28;20053;-72
2023/06/28 10:35:38;;;;;;;6.85;6.30;;;30.30;99.90;;;;;;5187260;28;20034;-71
2023/06/28 10:38:09;;;;;;;8.65;7.35;;;30.30;99.90;;;;;;5187262;28;20025;-72
2023/06/28 10:40:40;;;;;;;6.07;5.47;;;30.30;99.90;;;;;;5186959;28;20038;-72
2023/06/28 10:43:31;;;;;;;7.32;5.28;;;30.10;99.90;;;;;;5187144;28;20045;-71
2023/06/28 10:46:02;;;;;;;5.55;5.15;;;30.40;99.90;;;;;;5186935;28;20029;-72
2023/06/28 10:48:33;;;;;;;6.05;4.63;;;30.50;99.90;;;;;;5186973;28;20022;-72
2023/06/28 10:51:05;;;;;;;4.88;4.38;;;30.50;99.90;;;;;;5187082;28;20032;-72
2023/06/28 10:53:36;;;;;;;6.72;4.60;;;30.30;99.90;;;;;;5186922;28;20034;-71
2023/06/28 10:56:08;;;;;;;4.72;4.18;;;30.50;99.90;;;;;;5186772;28;20049;-72
2023/06/28 10:58:43;;;;;;;4.90;4.50;;;30.50;99.90;;;;;;5186912;28;20042;-72
2023/06/28 11:01:53;;;;;;;7.38;4.25;;;30.30;99.90;;;;;;5187049;28;20052;-72
2023/06/28 11:04:25;;;;;;;5.93;4.10;;;29.90;99.90;;;;;;5186954;28;20088;-71
2023/06/28 11:07:15;;;;;;;5.50;4.55;;;29.90;99.90;;;;;;5187041;28;20049;-72
2023/06/28 11:10:14;;;;;;;4.32;4.03;;;30.40;99.90;;;;;;5186945;28;20022;-72
2023/06/28 11:12:50;;;;;;;5.00;4.60;;;30.40;99.90;;;;;;5186932;28;20454;-72
2023/06/28 11:15:28;;;;;;;6.22;4.47;;;30.20;99.90;;;;;;5186568;28;20115;-72
2023/06/28 11:18:16;;;;;;;7.72;4.13;;;30.50;99.90;;;;;;5186577;28;20022;-71
2023/06/28 11:20:57;;;;;;;8.95;4.60;;;30.50;99.90;;;;;;5186670;28;20033;-71
2023/06/28 11:23:29;;;;;;;4.63;4.28;;;30.40;99.90;;;;;;5186573;28;20030;-72
2023/06/28 11:26:02;;;;;;;5.32;4.05;;;30.50;99.90;;;;;;5186501;28;20037;-72
2023/06/28 11:28:35;;;;;;;4.75;3.72;;;30.60;99.90;;;;;;5186386;28;20029;-72
2023/06/28 11:31:16;;;;;;;4.25;3.85;;;30.90;99.90;;;;;;5186327;28;20068;-71
2023/06/28 11:33:48;;;;;;;3.78;3.47;;;31.00;99.90;;;;;;5186269;28;20049;-72
2023/06/28 11:36:23;;;;;;;6.30;4.57;;;31.00;99.90;;;;;;5186219;28;20072;-72
2023/06/28 11:38:54;;;;;;;4.43;3.83;;;30.90;99.90;;;;;;5185823;28;20040;-72
2023/06/28 11:41:25;;;;;;;4.88;4.43;;;30.90;99.90;;;;;;5185748;28;20046;-72
2023/06/28 11:44:04;;;;;;;4.60;3.63;;;31.00;99.90;;;;;;5186042;28;20486;-72
2023/06/28 11:46:35;;;;;;;4.22;3.75;;;30.80;99.90;;;;;;5186023;28;20030;-71
2023/06/28 11:49:07;;;;;;;5.32;3.80;;;30.60;99.90;;;;;;5185946;28;20034;-72
2023/06/28 11:51:38;;;;;;;5.35;4.07;;;31.00;99.90;;;;;;5185850;28;20500;-72
2023/06/28 11:54:12;;;;;;;3.92;3.50;;;31.10;99.90;;;;;;5185761;28;20062;-71
2023/06/28 11:56:44;;;;;;;4.20;3.70;;;30.70;99.90;;;;;;5185692;28;20386;-71
2023/06/28 11:59:20;;;;;;;4.15;3.60;;;30.90;99.90;;;;;;5185692;28;20038;-72
2023/06/28 12:02:06;;;;;;;4.40;3.97;;;31.00;99.90;;;;;;5185832;28;20413;-72
2023/06/28 12:04:38;;;;;;;4.72;3.83;;;31.10;99.90;;;;;;5185638;28;20478;-72
2023/06/28 12:07:09;;;;;;;3.78;3.47;;;31.10;99.90;;;;;;5185685;28;20038;-72
2023/06/28 12:09:39;;;;;;;9.57;4.07;;;30.90;99.90;;;;;;5185592;28;20037;-72
2023/06/28 12:12:10;;;;;;;4.32;3.75;;;31.00;99.90;;;;;;5185543;28;20535;-71
2023/06/28 12:14:43;;;;;;;4.00;3.45;;;30.90;99.90;;;;;;5185502;28;20116;-72
2023/06/28 12:17:17;;;;;;;6.00;3.47;;;31.10;99.90;;;;;;5185847;28;20095;-72
2023/06/28 12:19:47;;;;;;;5.45;3.83;;;31.00;99.90;;;;;;5185528;28;20439;-72
2023/06/28 12:22:18;;;;;;;5.45;3.55;;;30.90;99.90;;;;;;5185902;28;20109;-72
2023/06/28 12:24:49;;;;;;;8.30;4.15;;;30.90;99.90;;;;;;5185826;28;20029;-71
2023/06/28 12:27:20;;;;;;;7.80;4.03;;;31.00;99.90;;;;;;5185447;28;20034;-71
2023/06/28 12:29:51;;;;;;;5.22;4.13;;;31.10;99.90;;;;;;5185703;28;20465;-72
2023/06/28 12:32:24;;;;;;;4.78;4.28;;;30.90;99.90;;;;;;5185482;28;20049;-72
2023/06/28 12:34:55;;;;;;;5.35;4.95;;;30.50;99.90;;;;;;5185427;28;20529;-71
2023/06/28 12:37:35;;;;;;;5.15;4.72;;;30.00;99.90;;;;;;5185397;28;20084;-71
2023/06/28 12:40:08;;;;;;;5.70;5.10;;;30.00;99.90;;;;;;5185116;28;20022;-72
2023/06/28 12:42:38;;;;;;;4.55;4.15;;;30.70;99.90;;;;;;5185087;28;20532;-71
2023/06/28 12:45:12;;;;;;;7.20;4.72;;;30.90;99.90;;;;;;5185338;28;20108;-71
2023/06/28 12:47:43;;;;;;;6.47;5.32;;;31.10;99.90;;;;;;5185288;28;20022;-72
2023/06/28 12:50:15;;;;;;;6.82;4.55;;;31.00;99.90;;;;;;5185365;28;20018;-72
2023/06/28 12:52:46;;;;;;;4.07;3.78;;;30.90;99.90;;;;;;5188374;28;20088;-72
2023/06/28 12:55:17;;;;;;;4.40;4.00;;;30.60;99.90;;;;;;5189374;28;20034;-71
2023/06/28 12:57:48;;;;;;;8.70;4.18;;;30.90;99.90;;;;;;5189317;28;20084;-71
2023/06/28 13:00:19;;;;;;;6.22;4.10;;;30.70;99.20;;;;;;5189277;28;20022;-71
2023/06/28 13:02:50;;;;;;;4.32;3.92;;;30.70;99.90;;;;;;5189189;28;20120;-71